Time;durP1;ratioP1;P1;durP2;ratioP2;P2;SDS_P1;SDS_P2;PMS_P1;PMS_P2;Temp;Humidity;BMP_temperature;BMP_pressure;BME280_temperature;BME280_humidity;BME280_pressure;Samples;Min_cycle;Max_cycle;Signal;HPM_P1;HPM_P2
2022/07/05 00:01:59;;;;;;;2.78;1.40;;;23.10;65.20;;;;;;5040525;28;20029;-50
2022/07/05 00:04:25;;;;;;;2.40;1.33;;;23.10;65.00;;;;;;5040427;28;20025;-50
2022/07/05 00:09:35;;;;;;;2.83;1.40;;;23.10;65.00;;;;;;5039894;28;20052;-48
2022/07/05 00:12:01;;;;;;;2.90;1.70;;;23.10;64.90;;;;;;5040881;28;20040;-50
2022/07/05 00:14:27;;;;;;;3.45;1.60;;;23.10;65.10;;;;;;5038849;28;20040;-50
2022/07/05 00:16:53;;;;;;;3.10;1.48;;;23.10;65.00;;;;;;5041214;28;20047;-50
2022/07/05 00:19:18;;;;;;;3.05;1.30;;;23.10;65.20;;;;;;5038821;28;20088;-50
2022/07/05 00:21:44;;;;;;;2.25;1.33;;;23.10;65.10;;;;;;5039974;28;20037;-49
2022/07/05 00:24:10;;;;;;;2.35;1.50;;;23.10;65.20;;;;;;5039855;28;20611;-50
2022/07/05 00:26:35;;;;;;;4.85;1.63;;;23.00;65.20;;;;;;5040026;28;20404;-50
2022/07/05 00:29:01;;;;;;;3.00;1.38;;;23.00;64.80;;;;;;5039744;28;20049;-49
2022/07/05 00:31:27;;;;;;;2.08;1.05;;;23.00;65.10;;;;;;5040045;28;20035;-49
2022/07/05 00:33:52;;;;;;;3.10;1.70;;;23.00;64.80;;;;;;5039749;28;20185;-50
2022/07/05 00:36:18;;;;;;;2.92;1.60;;;23.00;65.10;;;;;;5039565;28;20033;-50
2022/07/05 00:38:44;;;;;;;3.08;1.40;;;22.90;65.20;;;;;;5039925;28;20404;-49
2022/07/05 00:41:10;;;;;;;3.10;1.60;;;22.90;65.20;;;;;;5039046;28;20079;-50
2022/07/05 00:43:35;;;;;;;2.38;1.40;;;22.90;65.10;;;;;;5040535;28;20119;-49
2022/07/05 00:46:01;;;;;;;2.92;1.40;;;22.80;65.00;;;;;;5039254;28;20602;-50
2022/07/05 00:48:27;;;;;;;2.42;1.38;;;22.80;65.20;;;;;;5039938;28;20139;-48
2022/07/05 00:50:53;;;;;;;2.60;1.60;;;22.70;65.00;;;;;;5040532;28;20040;-48
2022/07/05 00:53:18;;;;;;;2.60;1.38;;;22.70;65.10;;;;;;5039593;28;20060;-50
2022/07/05 00:55:45;;;;;;;2.28;1.33;;;22.70;65.00;;;;;;5039979;28;20033;-49
2022/07/05 00:58:11;;;;;;;2.65;1.45;;;22.70;65.20;;;;;;5039146;28;20090;-49
2022/07/05 01:00:37;;;;;;;2.63;1.30;;;22.70;65.20;;;;;;5039516;28;20542;-49
2022/07/05 01:03:03;;;;;;;3.38;1.45;;;22.60;64.80;;;;;;5039529;28;20037;-49
2022/07/05 01:05:31;;;;;;;2.33;1.20;;;22.60;64.10;;;;;;5038187;28;20098;-50
2022/07/05 01:08:00;;;;;;;2.80;1.90;;;22.60;64.20;;;;;;5039849;28;20040;-48
2022/07/05 01:10:27;;;;;;;2.70;1.30;;;22.60;64.40;;;;;;5039156;28;20039;-50
2022/07/05 01:12:53;;;;;;;3.15;1.50;;;22.60;64.40;;;;;;5038716;28;20090;-50
2022/07/05 01:15:21;;;;;;;4.28;1.70;;;22.60;64.60;;;;;;5038483;28;20426;-49
2022/07/05 01:17:47;;;;;;;3.05;1.50;;;22.50;65.00;;;;;;5038716;28;20629;-48
2022/07/05 01:20:13;;;;;;;2.80;1.40;;;22.50;65.10;;;;;;5039742;28;20022;-49
2022/07/05 01:22:53;;;;;;;2.97;1.50;;;22.50;65.50;;;;;;5038242;28;20021;-49
2022/07/05 01:25:21;;;;;;;3.22;1.73;;;22.50;65.40;;;;;;5039109;28;20118;-49
2022/07/05 01:27:48;;;;;;;2.67;1.50;;;22.40;66.20;;;;;;5039324;28;20040;-49
2022/07/05 01:30:14;;;;;;;4.07;2.38;;;22.40;65.40;;;;;;5039055;28;20040;-50
2022/07/05 01:32:40;;;;;;;3.85;1.65;;;22.40;65.60;;;;;;5039794;28;20708;-49
2022/07/05 01:35:08;;;;;;;3.10;1.58;;;22.40;65.70;;;;;;5039494;28;20037;-50
2022/07/05 01:37:34;;;;;;;3.30;1.90;;;22.40;65.90;;;;;;5044065;28;20210;-49
2022/07/05 01:40:03;;;;;;;3.17;1.67;;;22.40;65.80;;;;;;5043610;28;20029;-50
2022/07/05 01:42:29;;;;;;;3.13;1.80;;;22.40;66.10;;;;;;5044594;28;20067;-49
2022/07/05 01:44:55;;;;;;;3.03;1.50;;;22.40;65.80;;;;;;5045792;28;20421;-49
2022/07/05 01:47:21;;;;;;;3.83;2.15;;;22.40;65.80;;;;;;5046777;28;20400;-50
2022/07/05 01:49:50;;;;;;;3.47;2.03;;;22.40;65.60;;;;;;5045010;28;20024;-50
2022/07/05 01:52:19;;;;;;;3.67;1.80;;;22.40;65.80;;;;;;5046904;28;20037;-49
2022/07/05 01:54:45;;;;;;;4.07;1.67;;;22.40;65.60;;;;;;5046469;28;20550;-49
2022/07/05 01:57:11;;;;;;;4.25;2.15;;;22.40;65.50;;;;;;5046009;28;20029;-50
2022/07/05 01:59:37;;;;;;;2.80;1.50;;;22.40;65.60;;;;;;5046879;28;20415;-49
2022/07/05 02:02:05;;;;;;;3.47;1.70;;;22.50;65.70;;;;;;5046100;28;20040;-49
2022/07/05 02:04:32;;;;;;;5.30;1.88;;;22.40;65.60;;;;;;5046588;28;20040;-50
2022/07/05 02:06:58;;;;;;;4.45;2.00;;;22.40;65.50;;;;;;5046259;28;20029;-48
2022/07/05 02:09:24;;;;;;;3.28;1.50;;;22.40;65.30;;;;;;5046458;28;20040;-49
2022/07/05 02:11:50;;;;;;;3.53;1.88;;;22.40;65.40;;;;;;5046414;28;20055;-49
2022/07/05 02:14:15;;;;;;;5.88;1.92;;;22.40;65.40;;;;;;5046294;28;20041;-49
2022/07/05 02:16:41;;;;;;;3.72;1.58;;;22.40;65.40;;;;;;5045528;28;20452;-50
2022/07/05 02:19:07;;;;;;;2.70;1.60;;;22.40;65.50;;;;;;5046485;28;20396;-49
2022/07/05 02:21:33;;;;;;;2.72;1.63;;;22.40;65.70;;;;;;5045436;28;20115;-50
2022/07/05 02:23:58;;;;;;;2.70;1.58;;;22.40;65.30;;;;;;5045633;28;20033;-50
2022/07/05 02:26:24;;;;;;;3.20;1.55;;;22.40;65.10;;;;;;5045627;28;20032;-49
2022/07/05 02:28:50;;;;;;;2.70;1.45;;;22.40;65.10;;;;;;5045690;28;20136;-49
2022/07/05 02:31:16;;;;;;;3.20;1.77;;;22.40;64.80;;;;;;5045382;28;20036;-50
2022/07/05 02:33:42;;;;;;;1.90;1.10;;;22.40;65.00;;;;;;5045584;28;20396;-49
2022/07/05 02:36:11;;;;;;;2.60;1.67;;;22.40;64.70;;;;;;5045483;28;20032;-49
2022/07/05 02:38:37;;;;;;;2.45;1.63;;;22.40;64.70;;;;;;5045310;28;20365;-50
2022/07/05 02:41:10;;;;;;;4.03;1.65;;;22.40;64.50;;;;;;5045401;28;20029;-49
2022/07/05 02:43:36;;;;;;;3.72;1.63;;;22.40;65.30;;;;;;5077666;28;20021;-49
2022/07/05 02:46:03;;;;;;;2.80;1.30;;;22.40;64.60;;;;;;5044598;28;20041;-48
2022/07/05 02:48:29;;;;;;;2.67;1.48;;;22.40;64.50;;;;;;5045387;28;20106;-49
2022/07/05 02:50:55;;;;;;;3.22;1.65;;;22.40;64.60;;;;;;5045142;28;20079;-50
2022/07/05 02:53:22;;;;;;;2.03;1.10;;;22.40;64.60;;;;;;5045434;28;20091;-49
2022/07/05 02:55:48;;;;;;;3.08;1.50;;;22.40;64.60;;;;;;5045520;28;20104;-49
2022/07/05 02:58:14;;;;;;;2.53;1.48;;;22.40;64.40;;;;;;5045024;28;20301;-48
2022/07/05 03:00:39;;;;;;;3.13;1.90;;;22.50;64.70;;;;;;5044871;28;20118;-48
2022/07/05 03:03:05;;;;;;;3.10;1.52;;;22.50;64.50;;;;;;5044846;28;20508;-49
2022/07/05 03:05:30;;;;;;;3.58;1.40;;;22.50;64.70;;;;;;5044664;28;20068;-49
2022/07/05 03:07:56;;;;;;;2.40;1.35;;;22.40;64.40;;;;;;5045077;28;20630;-49
2022/07/05 03:10:22;;;;;;;2.55;1.48;;;22.50;64.80;;;;;;5044252;28;20036;-48
2022/07/05 03:12:48;;;;;;;2.33;1.33;;;22.50;64.80;;;;;;5044004;28;20032;-49
2022/07/05 03:15:13;;;;;;;2.72;1.20;;;22.50;64.70;;;;;;5044144;28;20420;-49
2022/07/05 03:17:39;;;;;;;3.22;1.48;;;22.50;64.70;;;;;;5043844;28;20500;-52
2022/07/05 03:20:05;;;;;;;2.88;1.35;;;22.40;64.80;;;;;;5044680;28;20029;-49
2022/07/05 03:22:31;;;;;;;4.93;1.70;;;22.40;65.00;;;;;;5044658;28;20028;-49
2022/07/05 03:24:56;;;;;;;3.08;1.92;;;22.40;65.10;;;;;;5044797;28;20017;-49
2022/07/05 03:27:22;;;;;;;3.78;1.80;;;22.40;65.60;;;;;;5043919;28;20583;-49
2022/07/05 03:29:47;;;;;;;2.97;1.77;;;22.40;65.50;;;;;;5044214;28;20095;-48
2022/07/05 03:32:13;;;;;;;4.68;1.88;;;22.40;65.90;;;;;;5044079;28;20033;-49
2022/07/05 03:34:39;;;;;;;3.20;1.50;;;22.40;65.90;;;;;;5044511;28;20025;-48
2022/07/05 03:37:05;;;;;;;3.08;1.95;;;22.30;66.30;;;;;;5043050;28;20621;-49
2022/07/05 03:39:30;;;;;;;4.13;2.03;;;22.40;66.50;;;;;;5044133;28;20087;-48
2022/07/05 03:41:56;;;;;;;3.60;1.98;;;22.30;66.40;;;;;;5043793;28;20049;-48
2022/07/05 03:44:21;;;;;;;3.72;2.38;;;22.30;67.00;;;;;;5044012;28;20025;-48
2022/07/05 03:46:47;;;;;;;3.17;1.80;;;22.30;67.20;;;;;;5043623;28;20041;-49
2022/07/05 03:49:13;;;;;;;3.72;2.30;;;22.30;67.00;;;;;;5043974;28;20488;-49
2022/07/05 03:51:39;;;;;;;4.47;2.40;;;22.30;67.70;;;;;;5043943;28;20520;-48
2022/07/05 03:54:04;;;;;;;4.22;2.55;;;22.20;67.40;;;;;;5043899;28;20064;-49
2022/07/05 03:56:30;;;;;;;4.95;2.47;;;22.20;67.70;;;;;;5043278;28;20704;-49
2022/07/05 03:58:56;;;;;;;5.05;2.72;;;22.20;67.80;;;;;;5042360;28;20659;-49
2022/07/05 04:01:22;;;;;;;4.13;2.78;;;22.10;67.90;;;;;;5042703;28;20021;-48
2022/07/05 04:03:47;;;;;;;4.53;2.70;;;22.10;68.10;;;;;;5042749;28;20667;-49
2022/07/05 04:06:13;;;;;;;4.43;2.72;;;22.10;68.20;;;;;;5043192;28;20044;-48
2022/07/05 04:08:39;;;;;;;4.70;3.40;;;22.10;68.20;;;;;;5043313;28;20832;-48
2022/07/05 04:11:05;;;;;;;3.97;2.67;;;22.00;68.30;;;;;;5042785;28;20102;-48
2022/07/05 04:13:31;;;;;;;5.32;2.78;;;22.00;68.10;;;;;;5042789;28;20108;-47
2022/07/05 04:15:57;;;;;;;3.83;2.63;;;22.00;68.20;;;;;;5042364;28;20107;-48
2022/07/05 04:18:23;;;;;;;4.03;2.38;;;21.90;68.40;;;;;;5042431;28;20104;-49
2022/07/05 04:20:49;;;;;;;5.25;2.88;;;21.90;68.40;;;;;;5042055;28;20057;-48
2022/07/05 04:23:14;;;;;;;4.05;2.17;;;21.80;68.40;;;;;;5042547;28;20100;-48
2022/07/05 04:25:40;;;;;;;3.53;2.13;;;21.80;68.60;;;;;;5042165;28;20074;-48
2022/07/05 04:28:06;;;;;;;4.43;2.50;;;21.80;68.60;;;;;;5042174;28;20045;-49
2022/07/05 04:30:32;;;;;;;5.40;2.95;;;21.80;68.60;;;;;;5041896;28;20496;-48
2022/07/05 04:32:57;;;;;;;3.88;2.40;;;21.80;68.70;;;;;;5041870;28;20036;-47
2022/07/05 04:35:23;;;;;;;4.63;2.30;;;21.70;68.70;;;;;;5041107;28;20059;-48
2022/07/05 04:37:49;;;;;;;5.30;2.33;;;21.80;68.70;;;;;;5042125;28;20056;-48
2022/07/05 04:40:15;;;;;;;4.80;2.22;;;21.80;68.60;;;;;;5042054;28;20017;-48
2022/07/05 04:42:41;;;;;;;3.78;2.15;;;21.80;68.70;;;;;;5041602;28;20044;-48
2022/07/05 04:45:08;;;;;;;4.00;2.05;;;21.80;68.60;;;;;;5042256;28;20025;-48
2022/07/05 04:47:36;;;;;;;2.85;1.67;;;21.80;68.60;;;;;;5042125;28;20416;-48
2022/07/05 04:50:03;;;;;;;6.10;2.67;;;21.80;68.60;;;;;;5036937;28;20110;-47
2022/07/05 04:52:29;;;;;;;3.50;2.08;;;21.80;68.20;;;;;;5039665;28;20065;-48
2022/07/05 04:54:55;;;;;;;3.85;1.98;;;21.90;68.30;;;;;;5041790;28;20060;-47
2022/07/05 04:57:20;;;;;;;2.95;1.77;;;21.90;68.00;;;;;;5040482;28;20554;-49
2022/07/05 04:59:46;;;;;;;3.20;1.60;;;22.00;67.40;;;;;;5037997;28;20028;-47
2022/07/05 05:02:12;;;;;;;3.53;1.50;;;22.10;66.90;;;;;;5040287;28;20029;-48
2022/07/05 05:04:38;;;;;;;3.03;1.70;;;22.20;66.60;;;;;;5041806;28;20025;-48
2022/07/05 05:07:04;;;;;;;4.25;1.52;;;22.20;66.50;;;;;;5041276;28;20094;-49
2022/07/05 05:09:30;;;;;;;2.45;1.20;;;22.20;66.30;;;;;;5044067;28;20366;-48
2022/07/05 05:11:55;;;;;;;3.22;1.55;;;22.30;66.30;;;;;;5042268;28;20112;-48
2022/07/05 05:14:21;;;;;;;2.92;1.88;;;22.30;65.90;;;;;;5042224;28;20320;-49
2022/07/05 05:16:47;;;;;;;3.53;1.30;;;22.40;66.00;;;;;;5042938;28;20104;-50
2022/07/05 05:19:12;;;;;;;4.20;1.98;;;22.40;65.30;;;;;;5042517;28;20388;-49
2022/07/05 05:21:38;;;;;;;2.22;1.20;;;22.40;65.50;;;;;;5042615;28;20020;-48
2022/07/05 05:24:04;;;;;;;2.35;1.35;;;22.50;65.50;;;;;;5042519;28;20041;-49
2022/07/05 05:26:30;;;;;;;2.58;1.30;;;22.50;64.60;;;;;;5042185;28;20033;-48
2022/07/05 05:28:56;;;;;;;2.47;1.30;;;22.50;64.70;;;;;;5061013;28;20036;-48
2022/07/05 05:31:21;;;;;;;2.85;1.40;;;22.60;64.70;;;;;;5048227;28;20028;-48
2022/07/05 05:33:47;;;;;;;2.40;1.30;;;22.60;64.50;;;;;;5042505;28;20048;-48
2022/07/05 05:36:13;;;;;;;3.00;1.48;;;22.60;64.60;;;;;;5042259;28;20029;-47
2022/07/05 05:38:39;;;;;;;2.22;1.30;;;22.70;64.40;;;;;;5042358;28;20025;-48
2022/07/05 05:41:05;;;;;;;2.42;1.20;;;22.70;64.10;;;;;;5042431;28;20025;-44
2022/07/05 05:43:31;;;;;;;2.58;1.40;;;22.70;64.00;;;;;;5042768;28;20051;-47
2022/07/05 05:45:57;;;;;;;3.75;1.20;;;22.70;63.60;;;;;;5041977;28;20029;-48
2022/07/05 05:48:22;;;;;;;3.42;1.70;;;22.70;63.80;;;;;;5041034;28;20492;-46
2022/07/05 05:50:48;;;;;;;1.95;1.00;;;22.80;63.70;;;;;;5042598;28;20079;-45
2022/07/05 05:53:14;;;;;;;3.92;1.55;;;22.80;63.60;;;;;;5040672;28;20261;-46
2022/07/05 05:55:41;;;;;;;2.92;1.70;;;22.80;63.50;;;;;;5041716;28;20060;-45
2022/07/05 05:58:15;;;;;;;2.85;1.48;;;22.80;63.70;;;;;;5042268;28;20040;-46
2022/07/05 06:00:42;;;;;;;3.13;1.52;;;22.80;63.50;;;;;;5041787;28;20025;-45
2022/07/05 06:03:08;;;;;;;3.45;1.75;;;22.90;63.50;;;;;;5042390;28;20022;-45
2022/07/05 06:05:34;;;;;;;3.45;1.58;;;22.90;63.30;;;;;;5040921;28;20029;-46
2022/07/05 06:08:00;;;;;;;3.60;1.88;;;22.90;63.20;;;;;;5041890;28;20032;-45
2022/07/05 06:10:28;;;;;;;2.50;1.58;;;22.90;63.30;;;;;;5041190;28;20041;-45
2022/07/05 06:12:57;;;;;;;3.22;1.70;;;23.00;63.00;;;;;;5041285;28;20064;-45
2022/07/05 06:15:23;;;;;;;3.35;2.00;;;23.00;62.90;;;;;;5034737;28;20025;-46
2022/07/05 06:17:48;;;;;;;3.58;1.95;;;23.00;62.60;;;;;;5040487;28;20029;-45
2022/07/05 06:20:17;;;;;;;3.10;1.73;;;23.00;62.70;;;;;;5039629;28;20476;-45
2022/07/05 06:22:42;;;;;;;3.58;1.77;;;23.00;62.70;;;;;;5042347;28;20017;-45
2022/07/05 06:25:09;;;;;;;3.33;1.90;;;23.00;62.50;;;;;;5044035;28;20071;-45
2022/07/05 06:27:41;;;;;;;3.17;1.67;;;23.10;62.40;;;;;;5043477;28;20305;-45
2022/07/05 06:30:09;;;;;;;4.15;1.65;;;23.20;62.10;;;;;;5043753;28;20050;-45
2022/07/05 06:32:34;;;;;;;5.30;1.55;;;23.20;62.00;;;;;;5044489;28;20055;-45
2022/07/05 06:35:00;;;;;;;2.45;1.55;;;23.30;62.10;;;;;;5042132;28;20087;-48
2022/07/05 06:37:26;;;;;;;3.75;1.45;;;23.30;61.90;;;;;;5044427;28;20373;-46
2022/07/05 06:39:52;;;;;;;2.75;1.50;;;23.40;63.00;;;;;;5044147;28;20497;-46
2022/07/05 06:42:17;;;;;;;3.53;1.90;;;23.40;63.10;;;;;;5044877;28;20048;-46
2022/07/05 06:44:43;;;;;;;3.95;1.58;;;23.40;62.00;;;;;;5045393;28;20032;-46
2022/07/05 06:47:09;;;;;;;2.08;1.10;;;23.50;61.60;;;;;;5045178;28;20041;-45
2022/07/05 06:49:35;;;;;;;2.15;1.30;;;23.50;61.20;;;;;;5045351;28;20118;-46
2022/07/05 06:52:01;;;;;;;2.35;1.20;;;23.60;61.00;;;;;;5045695;28;20286;-46
2022/07/05 06:54:27;;;;;;;2.03;1.20;;;23.60;60.80;;;;;;5045182;28;20025;-46
2022/07/05 06:56:55;;;;;;;2.53;1.40;;;23.60;60.60;;;;;;5045046;28;20028;-46
2022/07/05 06:59:21;;;;;;;2.90;1.55;;;23.70;60.40;;;;;;5045228;28;20036;-45
2022/07/05 07:01:47;;;;;;;3.20;1.63;;;23.70;60.20;;;;;;5077477;28;20448;-46
2022/07/05 07:04:13;;;;;;;2.17;1.10;;;23.70;60.10;;;;;;5045116;28;20092;-46
2022/07/05 07:06:39;;;;;;;2.35;1.23;;;23.80;60.10;;;;;;5045241;28;20089;-45
2022/07/05 07:09:21;;;;;;;3.38;1.40;;;23.80;59.90;;;;;;5044391;28;20116;-45
2022/07/05 07:11:48;;;;;;;1.90;1.10;;;23.80;60.60;;;;;;5045075;28;20075;-47
2022/07/05 07:14:15;;;;;;;1.98;1.20;;;23.90;59.70;;;;;;5076962;28;20287;-46
2022/07/05 07:16:41;;;;;;;2.35;1.20;;;23.90;59.70;;;;;;5044140;28;20029;-46
2022/07/05 07:19:06;;;;;;;2.97;1.45;;;23.90;59.70;;;;;;5044935;28;20556;-46
2022/07/05 07:21:32;;;;;;;2.20;1.15;;;23.90;59.70;;;;;;5044642;28;20439;-46
2022/07/05 07:23:58;;;;;;;2.42;1.38;;;24.00;59.40;;;;;;5044577;28;20032;-46
2022/07/05 07:26:23;;;;;;;2.45;1.40;;;24.00;59.40;;;;;;5044608;28;20029;-46
2022/07/05 07:28:49;;;;;;;1.98;1.20;;;24.00;59.50;;;;;;5044783;28;20090;-49
2022/07/05 07:31:15;;;;;;;1.95;1.00;;;24.00;59.30;;;;;;5044063;28;20240;-46
2022/07/05 07:33:41;;;;;;;2.17;1.42;;;24.10;59.40;;;;;;5044568;28;20037;-46
2022/07/05 07:36:07;;;;;;;2.92;1.50;;;24.10;59.20;;;;;;5044595;28;20412;-46
2022/07/05 07:38:33;;;;;;;1.98;1.20;;;24.10;59.30;;;;;;5043068;28;20116;-46
2022/07/05 07:41:00;;;;;;;2.42;1.05;;;24.20;59.00;;;;;;5044471;28;20021;-45
2022/07/05 07:43:26;;;;;;;1.90;1.13;;;24.20;59.00;;;;;;5044374;28;20500;-46
2022/07/05 07:45:51;;;;;;;2.30;1.23;;;24.20;58.90;;;;;;5042299;28;20025;-46
2022/07/05 07:48:18;;;;;;;3.33;1.38;;;24.20;58.90;;;;;;5043270;28;20033;-46
2022/07/05 07:50:44;;;;;;;2.92;1.20;;;24.20;59.00;;;;;;5043821;28;20021;-46
2022/07/05 07:53:10;;;;;;;2.83;1.15;;;24.20;58.60;;;;;;5044821;28;20033;-45
2022/07/05 07:55:35;;;;;;;2.30;1.30;;;24.20;58.70;;;;;;5043779;28;20021;-45
2022/07/05 07:58:01;;;;;;;2.67;1.05;;;24.20;58.70;;;;;;5044318;28;20053;-47
2022/07/05 08:00:28;;;;;;;1.92;0.90;;;24.30;58.70;;;;;;5043908;28;20023;-50
2022/07/05 08:02:53;;;;;;;2.13;1.13;;;24.30;58.60;;;;;;5043997;28;20043;-45
2022/07/05 08:05:19;;;;;;;2.25;1.30;;;24.30;58.60;;;;;;5043781;28;20043;-45
2022/07/05 08:07:45;;;;;;;2.38;1.10;;;24.30;58.50;;;;;;5043596;28;20029;-46
2022/07/05 08:10:10;;;;;;;2.13;1.10;;;24.30;58.50;;;;;;5044176;28;20032;-46
2022/07/05 08:12:36;;;;;;;2.30;1.20;;;24.40;58.50;;;;;;5043159;28;20127;-46
2022/07/05 08:15:02;;;;;;;2.40;1.08;;;24.40;58.40;;;;;;5043288;28;20037;-46
2022/07/05 08:17:28;;;;;;;1.63;0.77;;;24.40;58.40;;;;;;5043363;28;20572;-46
2022/07/05 08:22:38;;;;;;;1.83;1.17;;;24.40;58.30;;;;;;5043642;28;20029;-46
2022/07/05 08:25:04;;;;;;;3.40;1.10;;;24.50;58.30;;;;;;5043488;28;20494;-46
2022/07/05 08:27:30;;;;;;;1.33;0.90;;;24.50;58.30;;;;;;5043408;28;20025;-46
2022/07/05 08:29:55;;;;;;;1.45;0.95;;;24.50;58.30;;;;;;5043235;28;20032;-48
2022/07/05 08:32:21;;;;;;;1.95;1.10;;;24.50;58.30;;;;;;5042929;28;20312;-46
2022/07/05 08:34:48;;;;;;;1.58;0.98;;;24.50;58.10;;;;;;5043639;28;20033;-46
2022/07/05 08:37:13;;;;;;;1.30;0.77;;;24.50;58.10;;;;;;5043030;28;20075;-46
2022/07/05 08:39:39;;;;;;;2.75;1.30;;;24.50;58.10;;;;;;5043272;28;20025;-46
2022/07/05 08:42:09;;;;;;;1.85;1.00;;;24.60;57.90;;;;;;5042510;28;20090;-46
2022/07/05 08:44:38;;;;;;;2.30;1.00;;;24.60;57.90;;;;;;5043019;28;20035;-46
2022/07/05 08:47:11;;;;;;;1.70;0.88;;;24.60;57.80;;;;;;5041911;28;20071;-46
2022/07/05 08:49:40;;;;;;;1.85;0.93;;;24.60;57.80;;;;;;5042878;28;20033;-46
2022/07/05 08:52:10;;;;;;;1.90;0.80;;;24.60;57.60;;;;;;5074764;28;20075;-46
2022/07/05 08:54:36;;;;;;;1.60;0.90;;;24.60;57.70;;;;;;5042916;28;20693;-46
2022/07/05 08:57:02;;;;;;;1.63;0.95;;;24.60;57.60;;;;;;5042587;28;20025;-46
2022/07/05 08:59:28;;;;;;;1.55;0.90;;;24.60;57.60;;;;;;5042438;28;20078;-45
2022/07/05 09:01:56;;;;;;;1.42;0.70;;;24.60;57.60;;;;;;5043157;28;20094;-47
2022/07/05 09:04:23;;;;;;;1.98;0.90;;;24.60;57.50;;;;;;5042982;28;20052;-46
2022/07/05 09:06:50;;;;;;;1.63;0.90;;;24.70;58.30;;;;;;5042382;28;20033;-46
2022/07/05 09:09:18;;;;;;;1.30;0.73;;;24.70;57.60;;;;;;5043035;28;20029;-46
2022/07/05 09:11:46;;;;;;;1.15;0.80;;;24.70;57.50;;;;;;5042558;28;20029;-46
2022/07/05 09:14:24;;;;;;;1.55;0.80;;;24.70;57.50;;;;;;5041930;28;20037;-46
2022/07/05 09:16:50;;;;;;;1.63;0.80;;;24.70;57.60;;;;;;5042690;28;20082;-46
2022/07/05 09:19:16;;;;;;;1.88;0.98;;;24.70;57.50;;;;;;5042390;28;20037;-46
2022/07/05 09:21:42;;;;;;;1.63;0.90;;;24.70;57.40;;;;;;5043313;28;20063;-47
2022/07/05 09:24:09;;;;;;;1.40;0.70;;;24.70;57.40;;;;;;5042388;28;20100;-46
2022/07/05 09:26:40;;;;;;;1.55;0.90;;;24.70;57.30;;;;;;5042125;28;20432;-46
2022/07/05 09:29:14;;;;;;;2.47;1.05;;;24.80;57.20;;;;;;5042688;28;20051;-46
2022/07/05 09:31:41;;;;;;;1.75;0.90;;;24.70;57.30;;;;;;5074909;28;20508;-46
2022/07/05 09:34:09;;;;;;;0.90;0.60;;;24.70;57.20;;;;;;5042711;28;20469;-46
2022/07/05 09:36:55;;;;;;;1.63;0.80;;;24.80;57.10;;;;;;5041666;28;20124;-46
2022/07/05 09:39:29;;;;;;;1.42;0.77;;;24.80;57.20;;;;;;5042725;28;20029;-47
2022/07/05 09:42:25;;;;;;;2.22;0.80;;;24.80;57.20;;;;;;5043099;28;20489;-46
2022/07/05 09:44:56;;;;;;;1.70;0.90;;;24.80;57.20;;;;;;5042248;28;20040;-46
2022/07/05 09:47:27;;;;;;;1.85;0.98;;;24.80;57.10;;;;;;5042020;28;20122;-46
2022/07/05 09:49:55;;;;;;;1.60;0.80;;;24.80;57.10;;;;;;5042821;28;20435;-46
2022/07/05 09:52:31;;;;;;;1.13;0.63;;;24.80;57.10;;;;;;5042143;28;20496;-46
2022/07/05 09:55:18;;;;;;;1.45;0.80;;;24.80;57.10;;;;;;5041878;28;20642;-46
2022/07/05 09:57:50;;;;;;;1.08;0.63;;;24.80;57.00;;;;;;5025014;28;20036;-46
2022/07/05 10:00:21;;;;;;;1.02;0.60;;;24.90;57.10;;;;;;5026651;28;20026;-46
2022/07/05 10:02:52;;;;;;;1.17;0.75;;;24.90;57.10;;;;;;5046596;28;20017;-46
2022/07/05 10:05:20;;;;;;;1.15;0.80;;;24.90;57.10;;;;;;5045025;28;20029;-46
2022/07/05 10:07:53;;;;;;;1.33;0.70;;;24.90;57.10;;;;;;5046200;28;20037;-46
2022/07/05 10:10:25;;;;;;;1.45;0.82;;;24.90;57.60;;;;;;5045980;28;20029;-46
2022/07/05 10:12:53;;;;;;;1.02;0.70;;;24.90;57.00;;;;;;5045802;28;20155;-46
2022/07/05 10:15:24;;;;;;;1.50;0.98;;;24.90;56.90;;;;;;5046112;28;20029;-46
2022/07/05 10:17:54;;;;;;;1.33;0.60;;;24.90;57.00;;;;;;5046658;28;20029;-46
2022/07/05 10:20:40;;;;;;;1.60;0.80;;;24.90;56.90;;;;;;5046286;28;20025;-46
2022/07/05 10:23:08;;;;;;;1.17;0.77;;;24.90;56.80;;;;;;5045582;28;20025;-46
2022/07/05 10:25:39;;;;;;;1.17;0.55;;;24.90;56.70;;;;;;5043677;28;20036;-46
2022/07/05 10:28:06;;;;;;;1.83;0.90;;;24.90;56.70;;;;;;5044765;28;20040;-51
2022/07/05 10:30:33;;;;;;;2.13;0.85;;;24.90;56.70;;;;;;5045721;28;20056;-46
2022/07/05 10:33:02;;;;;;;1.73;0.70;;;24.90;56.70;;;;;;5045395;28;20108;-46
2022/07/05 10:35:28;;;;;;;1.50;0.70;;;24.90;56.60;;;;;;5044861;28;20068;-46
2022/07/05 10:37:54;;;;;;;1.15;0.68;;;24.90;56.60;;;;;;5044481;28;20364;-47
2022/07/05 10:40:20;;;;;;;1.45;0.70;;;25.00;56.60;;;;;;5045297;28;20094;-47
2022/07/05 10:42:50;;;;;;;1.40;0.70;;;25.00;56.60;;;;;;5044286;28;20033;-47
2022/07/05 10:45:49;;;;;;;1.38;0.75;;;24.90;56.60;;;;;;5044539;28;20029;-47
2022/07/05 10:48:24;;;;;;;1.15;0.63;;;25.00;56.70;;;;;;5023840;28;20037;-46
2022/07/05 10:50:52;;;;;;;1.05;0.70;;;25.00;56.60;;;;;;5024296;28;20061;-47
2022/07/05 10:53:27;;;;;;;1.70;0.85;;;25.00;56.40;;;;;;5024404;28;20045;-47
2022/07/05 10:56:14;;;;;;;1.70;0.68;;;25.00;56.60;;;;;;5031214;28;20099;-46
2022/07/05 10:58:44;;;;;;;1.65;0.90;;;25.00;56.60;;;;;;5043525;28;20104;-48
2022/07/05 11:01:19;;;;;;;1.40;0.80;;;25.00;56.50;;;;;;5044486;28;20032;-47
2022/07/05 11:03:49;;;;;;;1.08;0.60;;;25.00;56.60;;;;;;5043338;28;20033;-47
2022/07/05 11:06:29;;;;;;;1.00;0.60;;;25.00;56.50;;;;;;5024772;28;20025;-47
2022/07/05 11:08:57;;;;;;;1.10;0.60;;;25.00;56.60;;;;;;5023847;28;20029;-46
2022/07/05 11:11:25;;;;;;;1.45;0.80;;;25.00;56.40;;;;;;5024656;28;20037;-46
2022/07/05 11:13:53;;;;;;;1.58;0.70;;;25.00;56.30;;;;;;5023862;28;20454;-47
2022/07/05 11:16:24;;;;;;;1.15;0.70;;;25.00;56.30;;;;;;5039652;28;20115;-46
2022/07/05 11:18:53;;;;;;;1.55;0.60;;;25.00;56.30;;;;;;5064385;28;20082;-47
2022/07/05 11:21:21;;;;;;;1.15;0.60;;;25.00;56.20;;;;;;5064583;28;20028;-48
2022/07/05 11:23:47;;;;;;;1.42;0.70;;;25.00;56.30;;;;;;5064243;28;20032;-48
2022/07/05 11:26:15;;;;;;;1.52;0.70;;;25.00;56.20;;;;;;5054966;28;20029;-47
2022/07/05 11:28:47;;;;;;;2.00;0.70;;;25.00;56.30;;;;;;5044977;28;20098;-47
2022/07/05 11:31:32;;;;;;;1.15;0.70;;;25.00;56.30;;;;;;5044400;28;20234;-46
2022/07/05 11:34:17;;;;;;;1.42;0.60;;;25.00;56.30;;;;;;5044511;28;20029;-48
2022/07/05 11:36:42;;;;;;;1.25;0.60;;;25.00;56.30;;;;;;5043615;28;20027;-48
2022/07/05 11:39:15;;;;;;;1.17;0.60;;;25.00;56.30;;;;;;5044565;28;20020;-47
2022/07/05 11:41:46;;;;;;;1.23;0.50;;;25.00;56.20;;;;;;5044471;28;20028;-46
2022/07/05 11:44:13;;;;;;;1.38;0.60;;;25.00;56.20;;;;;;5044322;28;20514;-48
2022/07/05 11:46:40;;;;;;;1.90;0.60;;;25.10;56.20;;;;;;5043806;28;20076;-48
2022/07/05 11:49:06;;;;;;;0.95;0.60;;;25.10;56.10;;;;;;5043944;28;20112;-47
2022/07/05 11:51:32;;;;;;;1.17;0.50;;;25.10;56.20;;;;;;5044109;28;20096;-47
2022/07/05 11:53:57;;;;;;;0.65;0.38;;;25.10;56.20;;;;;;5044113;28;20033;-48
2022/07/05 11:56:24;;;;;;;1.55;0.70;;;25.10;56.10;;;;;;5043892;28;20033;-47
2022/07/05 11:58:49;;;;;;;1.05;0.60;;;25.10;56.10;;;;;;5043518;28;20620;-47
2022/07/05 12:01:15;;;;;;;1.23;0.70;;;25.10;56.00;;;;;;5043505;28;20035;-48
2022/07/05 12:03:51;;;;;;;0.70;0.50;;;25.10;56.00;;;;;;5042853;28;20378;-47
2022/07/05 12:06:17;;;;;;;1.05;0.50;;;25.10;55.90;;;;;;5023632;28;20037;-46
2022/07/05 12:08:43;;;;;;;0.88;0.50;;;25.10;55.90;;;;;;5023474;28;20030;-47
2022/07/05 12:13:56;;;;;;;1.05;0.60;;;25.10;56.00;;;;;;5023457;28;20028;-46
2022/07/05 12:16:23;;;;;;;0.95;0.45;;;25.10;55.90;;;;;;5030332;28;20033;-47
2022/07/05 12:18:56;;;;;;;0.88;0.40;;;25.10;56.00;;;;;;5042581;28;20584;-47
2022/07/05 12:21:24;;;;;;;0.85;0.47;;;25.10;55.90;;;;;;5043959;28;20028;-46
2022/07/05 12:23:51;;;;;;;2.20;0.80;;;25.10;56.00;;;;;;5043249;28;20468;-47
2022/07/05 12:26:18;;;;;;;1.58;0.73;;;25.10;55.90;;;;;;5043569;28;20106;-47
2022/07/05 12:28:45;;;;;;;1.00;0.50;;;25.10;56.00;;;;;;5043665;28;20179;-47
2022/07/05 12:31:22;;;;;;;0.88;0.50;;;25.10;55.90;;;;;;5043203;28;20106;-47
2022/07/05 12:33:49;;;;;;;1.85;0.70;;;25.20;56.00;;;;;;5042791;28;20017;-47
2022/07/05 12:36:19;;;;;;;0.82;0.57;;;25.20;55.90;;;;;;5042179;28;20577;-46
2022/07/05 12:38:45;;;;;;;1.60;0.73;;;25.20;56.00;;;;;;5042012;28;20045;-46
2022/07/05 12:41:12;;;;;;;1.13;0.63;;;25.20;55.90;;;;;;5042191;28;20416;-48
2022/07/05 12:43:51;;;;;;;0.82;0.50;;;25.10;56.00;;;;;;5036413;28;20025;-47
2022/07/05 12:46:17;;;;;;;1.08;0.60;;;25.10;56.10;;;;;;5031519;28;20060;-47
2022/07/05 12:48:43;;;;;;;1.27;0.57;;;25.20;55.90;;;;;;5032819;28;20455;-46
2022/07/05 12:51:10;;;;;;;1.13;0.60;;;25.20;55.80;;;;;;5041558;28;20103;-47
2022/07/05 12:59:17;;;;;;;1.30;0.70;;;25.20;55.70;;;;;;5041126;28;20028;-46
2022/07/05 13:01:44;;;;;;;1.58;0.65;;;25.20;55.70;;;;;;5030087;28;20464;-46
2022/07/05 13:04:18;;;;;;;0.98;0.63;;;25.20;55.70;;;;;;5042231;28;20535;-47